sensor_id;sensor_type;location;lat;lon;timestamp;P1;durP1;ratioP1;P2;durP2;ratioP2
62401;SDS011;48440;51.224;22.506;2023-09-19T00:01:41;11.00;;;6.57;;
62401;SDS011;48440;51.224;22.506;2023-09-19T00:04:12;7.00;;;5.78;;
62401;SDS011;48440;51.224;22.506;2023-09-19T00:06:38;7.22;;;5.68;;
62401;SDS011;48440;51.224;22.506;2023-09-19T00:09:04;9.02;;;6.35;;
62401;SDS011;48440;51.224;22.506;2023-09-19T00:11:35;8.05;;;6.07;;
62401;SDS011;48440;51.224;22.506;2023-09-19T00:14:01;8.15;;;6.40;;
62401;SDS011;48440;51.224;22.506;2023-09-19T00:16:27;7.43;;;6.10;;
62401;SDS011;48440;51.224;22.506;2023-09-19T00:18:53;6.88;;;6.18;;
62401;SDS011;48440;51.224;22.506;2023-09-19T00:21:20;7.20;;;6.10;;
62401;SDS011;48440;51.224;22.506;2023-09-19T00:23:46;8.20;;;6.20;;
62401;SDS011;48440;51.224;22.506;2023-09-19T00:26:11;6.88;;;6.07;;
62401;SDS011;48440;51.224;22.506;2023-09-19T00:28:37;9.85;;;6.18;;
62401;SDS011;48440;51.224;22.506;2023-09-19T00:31:04;6.78;;;5.97;;
62401;SDS011;48440;51.224;22.506;2023-09-19T00:33:33;7.82;;;6.25;;
62401;SDS011;48440;51.224;22.506;2023-09-19T00:35:59;8.38;;;6.13;;
62401;SDS011;48440;51.224;22.506;2023-09-19T00:38:29;7.85;;;6.57;;
62401;SDS011;48440;51.224;22.506;2023-09-19T00:40:55;9.07;;;6.28;;
62401;SDS011;48440;51.224;22.506;2023-09-19T00:43:22;9.00;;;6.60;;
62401;SDS011;48440;51.224;22.506;2023-09-19T00:45:49;7.72;;;6.38;;
62401;SDS011;48440;51.224;22.506;2023-09-19T00:48:18;7.05;;;5.55;;
62401;SDS011;48440;51.224;22.506;2023-09-19T00:50:46;8.02;;;6.10;;
62401;SDS011;48440;51.224;22.506;2023-09-19T00:53:13;8.27;;;6.50;;
62401;SDS011;48440;51.224;22.506;2023-09-19T00:55:43;8.55;;;6.07;;
62401;SDS011;48440;51.224;22.506;2023-09-19T00:58:10;7.63;;;6.38;;
62401;SDS011;48440;51.224;22.506;2023-09-19T01:00:36;7.40;;;6.22;;
62401;SDS011;48440;51.224;22.506;2023-09-19T01:03:03;9.55;;;6.90;;
62401;SDS011;48440;51.224;22.506;2023-09-19T01:05:32;9.80;;;6.57;;
62401;SDS011;48440;51.224;22.506;2023-09-19T01:07:58;8.38;;;6.50;;
62401;SDS011;48440;51.224;22.506;2023-09-19T01:10:24;8.70;;;6.40;;
62401;SDS011;48440;51.224;22.506;2023-09-19T01:13:04;11.02;;;6.50;;
62401;SDS011;48440;51.224;22.506;2023-09-19T01:31:46;7.57;;;6.40;;
62401;SDS011;48440;51.224;22.506;2023-09-19T01:34:14;8.75;;;6.88;;
62401;SDS011;48440;51.224;22.506;2023-09-19T01:36:39;8.68;;;7.05;;
62401;SDS011;48440;51.224;22.506;2023-09-19T01:39:07;8.75;;;6.80;;
62401;SDS011;48440;51.224;22.506;2023-09-19T01:47:54;7.95;;;6.32;;
62401;SDS011;48440;51.224;22.506;2023-09-19T01:55:58;8.80;;;6.75;;
62401;SDS011;48440;51.224;22.506;2023-09-19T01:58:37;9.43;;;6.57;;
62401;SDS011;48440;51.224;22.506;2023-09-19T02:01:08;7.93;;;6.50;;
62401;SDS011;48440;51.224;22.506;2023-09-19T02:03:38;10.27;;;6.68;;
62401;SDS011;48440;51.224;22.506;2023-09-19T02:06:04;9.50;;;6.40;;
62401;SDS011;48440;51.224;22.506;2023-09-19T02:08:30;9.10;;;6.57;;
62401;SDS011;48440;51.224;22.506;2023-09-19T02:10:59;8.15;;;6.32;;
62401;SDS011;48440;51.224;22.506;2023-09-19T02:13:25;11.40;;;7.20;;
62401;SDS011;48440;51.224;22.506;2023-09-19T02:15:52;11.35;;;7.32;;
62401;SDS011;48440;51.224;22.506;2023-09-19T02:18:17;12.23;;;7.05;;
62401;SDS011;48440;51.224;22.506;2023-09-19T02:20:43;9.25;;;6.80;;
62401;SDS011;48440;51.224;22.506;2023-09-19T02:23:09;8.07;;;6.60;;
62401;SDS011;48440;51.224;22.506;2023-09-19T02:25:35;9.73;;;7.47;;
62401;SDS011;48440;51.224;22.506;2023-09-19T02:28:03;10.68;;;7.28;;
62401;SDS011;48440;51.224;22.506;2023-09-19T02:30:29;8.98;;;7.10;;
62401;SDS011;48440;51.224;22.506;2023-09-19T02:32:54;9.88;;;6.93;;
62401;SDS011;48440;51.224;22.506;2023-09-19T02:35:20;9.77;;;7.25;;
62401;SDS011;48440;51.224;22.506;2023-09-19T02:37:46;8.48;;;6.55;;
62401;SDS011;48440;51.224;22.506;2023-09-19T02:40:12;8.65;;;6.72;;
62401;SDS011;48440;51.224;22.506;2023-09-19T02:42:45;8.77;;;6.53;;
62401;SDS011;48440;51.224;22.506;2023-09-19T02:45:18;8.75;;;6.55;;
62401;SDS011;48440;51.224;22.506;2023-09-19T02:47:44;9.05;;;7.00;;
62401;SDS011;48440;51.224;22.506;2023-09-19T02:50:13;8.40;;;6.50;;
62401;SDS011;48440;51.224;22.506;2023-09-19T02:52:41;8.38;;;7.13;;
62401;SDS011;48440;51.224;22.506;2023-09-19T02:55:13;10.53;;;7.40;;
62401;SDS011;48440;51.224;22.506;2023-09-19T03:00:14;7.53;;;6.72;;
62401;SDS011;48440;51.224;22.506;2023-09-19T03:02:40;10.18;;;7.20;;
62401;SDS011;48440;51.224;22.506;2023-09-19T03:05:06;8.73;;;6.65;;
62401;SDS011;48440;51.224;22.506;2023-09-19T03:07:33;8.45;;;6.53;;
62401;SDS011;48440;51.224;22.506;2023-09-19T03:09:59;9.55;;;6.55;;
62401;SDS011;48440;51.224;22.506;2023-09-19T03:12:25;9.68;;;6.70;;
62401;SDS011;48440;51.224;22.506;2023-09-19T03:14:51;7.90;;;6.90;;
62401;SDS011;48440;51.224;22.506;2023-09-19T03:17:17;9.35;;;6.78;;
62401;SDS011;48440;51.224;22.506;2023-09-19T03:19:45;9.05;;;6.65;;
62401;SDS011;48440;51.224;22.506;2023-09-19T03:22:12;10.15;;;6.85;;
62401;SDS011;48440;51.224;22.506;2023-09-19T03:24:37;8.70;;;6.90;;
62401;SDS011;48440;51.224;22.506;2023-09-19T03:27:03;11.10;;;6.90;;
62401;SDS011;48440;51.224;22.506;2023-09-19T03:29:29;11.20;;;6.78;;
62401;SDS011;48440;51.224;22.506;2023-09-19T03:31:55;8.60;;;6.78;;
62401;SDS011;48440;51.224;22.506;2023-09-19T03:34:22;7.95;;;6.63;;
62401;SDS011;48440;51.224;22.506;2023-09-19T03:36:48;8.73;;;6.95;;
62401;SDS011;48440;51.224;22.506;2023-09-19T03:39:14;8.73;;;6.97;;
62401;SDS011;48440;51.224;22.506;2023-09-19T03:41:42;9.70;;;6.68;;
62401;SDS011;48440;51.224;22.506;2023-09-19T03:44:07;8.30;;;7.05;;
62401;SDS011;48440;51.224;22.506;2023-09-19T03:46:33;8.90;;;7.32;;
62401;SDS011;48440;51.224;22.506;2023-09-19T03:49:00;9.38;;;7.22;;
62401;SDS011;48440;51.224;22.506;2023-09-19T03:51:26;8.77;;;7.07;;
62401;SDS011;48440;51.224;22.506;2023-09-19T03:53:51;9.05;;;6.53;;
62401;SDS011;48440;51.224;22.506;2023-09-19T03:56:17;10.60;;;7.55;;
62401;SDS011;48440;51.224;22.506;2023-09-19T03:58:42;8.50;;;6.40;;
62401;SDS011;48440;51.224;22.506;2023-09-19T04:01:08;8.27;;;6.70;;
62401;SDS011;48440;51.224;22.506;2023-09-19T04:03:34;7.38;;;6.43;;
62401;SDS011;48440;51.224;22.506;2023-09-19T04:06:10;8.77;;;6.45;;
62401;SDS011;48440;51.224;22.506;2023-09-19T04:08:37;10.15;;;6.45;;
62401;SDS011;48440;51.224;22.506;2023-09-19T04:11:02;7.65;;;6.85;;
62401;SDS011;48440;51.224;22.506;2023-09-19T04:13:28;10.27;;;6.82;;
62401;SDS011;48440;51.224;22.506;2023-09-19T04:15:53;7.43;;;6.63;;
62401;SDS011;48440;51.224;22.506;2023-09-19T04:18:19;8.65;;;6.75;;
62401;SDS011;48440;51.224;22.506;2023-09-19T04:20:49;11.23;;;6.75;;
62401;SDS011;48440;51.224;22.506;2023-09-19T04:23:17;9.60;;;6.35;;
62401;SDS011;48440;51.224;22.506;2023-09-19T04:25:46;8.43;;;7.00;;
62401;SDS011;48440;51.224;22.506;2023-09-19T04:28:12;9.95;;;6.45;;
62401;SDS011;48440;51.224;22.506;2023-09-19T04:30:38;8.10;;;6.60;;
62401;SDS011;48440;51.224;22.506;2023-09-19T04:33:06;9.80;;;6.63;;
62401;SDS011;48440;51.224;22.506;2023-09-19T04:35:33;7.80;;;6.88;;
62401;SDS011;48440;51.224;22.506;2023-09-19T04:37:59;8.57;;;6.50;;
62401;SDS011;48440;51.224;22.506;2023-09-19T04:40:25;8.63;;;6.45;;
62401;SDS011;48440;51.224;22.506;2023-09-19T04:42:55;10.05;;;6.95;;
62401;SDS011;48440;51.224;22.506;2023-09-19T04:45:25;7.65;;;6.38;;
62401;SDS011;48440;51.224;22.506;2023-09-19T04:47:51;7.63;;;6.05;;
62401;SDS011;48440;51.224;22.506;2023-09-19T04:50:18;9.82;;;6.28;;
62401;SDS011;48440;51.224;22.506;2023-09-19T04:52:46;8.68;;;6.43;;
62401;SDS011;48440;51.224;22.506;2023-09-19T04:55:16;10.82;;;6.55;;
62401;SDS011;48440;51.224;22.506;2023-09-19T05:00:18;8.00;;;6.35;;
62401;SDS011;48440;51.224;22.506;2023-09-19T05:02:51;7.53;;;5.93;;
62401;SDS011;48440;51.224;22.506;2023-09-19T05:05:17;6.70;;;5.97;;
62401;SDS011;48440;51.224;22.506;2023-09-19T05:07:44;8.35;;;6.45;;
62401;SDS011;48440;51.224;22.506;2023-09-19T05:10:11;8.35;;;6.57;;
62401;SDS011;48440;51.224;22.506;2023-09-19T05:12:38;8.27;;;6.43;;
62401;SDS011;48440;51.224;22.506;2023-09-19T05:15:06;7.05;;;6.38;;
62401;SDS011;48440;51.224;22.506;2023-09-19T05:17:33;8.50;;;6.00;;
62401;SDS011;48440;51.224;22.506;2023-09-19T05:19:59;10.05;;;6.18;;
62401;SDS011;48440;51.224;22.506;2023-09-19T05:23:02;7.97;;;6.13;;
62401;SDS011;48440;51.224;22.506;2023-09-19T05:25:34;8.38;;;6.43;;
62401;SDS011;48440;51.224;22.506;2023-09-19T05:28:02;7.70;;;6.25;;
62401;SDS011;48440;51.224;22.506;2023-09-19T05:30:28;7.90;;;6.20;;
62401;SDS011;48440;51.224;22.506;2023-09-19T05:32:54;8.75;;;6.45;;
62401;SDS011;48440;51.224;22.506;2023-09-19T05:35:21;8.90;;;6.10;;
62401;SDS011;48440;51.224;22.506;2023-09-19T05:37:47;7.32;;;5.88;;
62401;SDS011;48440;51.224;22.506;2023-09-19T05:40:16;9.27;;;6.55;;
62401;SDS011;48440;51.224;22.506;2023-09-19T05:42:42;9.05;;;6.55;;
62401;SDS011;48440;51.224;22.506;2023-09-19T05:45:09;7.53;;;6.28;;
62401;SDS011;48440;51.224;22.506;2023-09-19T05:47:41;8.45;;;6.15;;
62401;SDS011;48440;51.224;22.506;2023-09-19T05:50:08;6.97;;;6.00;;
62401;SDS011;48440;51.224;22.506;2023-09-19T05:52:38;8.63;;;5.88;;
62401;SDS011;48440;51.224;22.506;2023-09-19T05:55:06;8.00;;;6.32;;
62401;SDS011;48440;51.224;22.506;2023-09-19T05:57:35;8.90;;;6.75;;
62401;SDS011;48440;51.224;22.506;2023-09-19T06:00:02;9.30;;;6.63;;
62401;SDS011;48440;51.224;22.506;2023-09-19T06:02:34;10.57;;;6.72;;
62401;SDS011;48440;51.224;22.506;2023-09-19T06:05:01;9.40;;;6.47;;
62401;SDS011;48440;51.224;22.506;2023-09-19T06:07:26;7.97;;;6.30;;
62401;SDS011;48440;51.224;22.506;2023-09-19T06:10:01;9.40;;;6.15;;
62401;SDS011;48440;51.224;22.506;2023-09-19T06:12:30;8.52;;;6.38;;
62401;SDS011;48440;51.224;22.506;2023-09-19T06:14:58;7.65;;;5.95;;
62401;SDS011;48440;51.224;22.506;2023-09-19T06:17:24;9.35;;;6.75;;
62401;SDS011;48440;51.224;22.506;2023-09-19T06:19:52;6.72;;;5.65;;
62401;SDS011;48440;51.224;22.506;2023-09-19T06:22:18;9.02;;;6.32;;
62401;SDS011;48440;51.224;22.506;2023-09-19T06:24:44;8.05;;;6.03;;
62401;SDS011;48440;51.224;22.506;2023-09-19T06:27:12;9.95;;;6.30;;
62401;SDS011;48440;51.224;22.506;2023-09-19T06:29:38;7.13;;;5.85;;
62401;SDS011;48440;51.224;22.506;2023-09-19T06:32:10;8.00;;;5.70;;
62401;SDS011;48440;51.224;22.506;2023-09-19T06:34:36;7.28;;;5.68;;
62401;SDS011;48440;51.224;22.506;2023-09-19T06:37:03;7.28;;;6.25;;
62401;SDS011;48440;51.224;22.506;2023-09-19T06:39:31;6.85;;;6.03;;
62401;SDS011;48440;51.224;22.506;2023-09-19T06:41:56;8.82;;;6.30;;
62401;SDS011;48440;51.224;22.506;2023-09-19T06:44:23;8.50;;;5.80;;
62401;SDS011;48440;51.224;22.506;2023-09-19T06:46:50;8.35;;;6.07;;
62401;SDS011;48440;51.224;22.506;2023-09-19T06:49:16;8.80;;;5.78;;
62401;SDS011;48440;51.224;22.506;2023-09-19T06:51:43;6.47;;;5.60;;
62401;SDS011;48440;51.224;22.506;2023-09-19T06:54:09;6.95;;;5.78;;
62401;SDS011;48440;51.224;22.506;2023-09-19T06:56:37;7.15;;;5.82;;
62401;SDS011;48440;51.224;22.506;2023-09-19T06:59:02;9.23;;;5.88;;
62401;SDS011;48440;51.224;22.506;2023-09-19T07:01:31;6.78;;;6.05;;
62401;SDS011;48440;51.224;22.506;2023-09-19T07:03:57;7.05;;;5.85;;
62401;SDS011;48440;51.224;22.506;2023-09-19T07:06:23;6.75;;;5.78;;
62401;SDS011;48440;51.224;22.506;2023-09-19T07:08:49;8.70;;;6.50;;
62401;SDS011;48440;51.224;22.506;2023-09-19T07:11:15;9.68;;;6.03;;
62401;SDS011;48440;51.224;22.506;2023-09-19T07:13:41;7.97;;;6.25;;
62401;SDS011;48440;51.224;22.506;2023-09-19T07:16:06;10.32;;;6.47;;
62401;SDS011;48440;51.224;22.506;2023-09-19T07:18:34;8.00;;;6.10;;
62401;SDS011;48440;51.224;22.506;2023-09-19T07:20:59;7.72;;;6.28;;
62401;SDS011;48440;51.224;22.506;2023-09-19T07:23:30;7.68;;;6.00;;
62401;SDS011;48440;51.224;22.506;2023-09-19T07:26:00;9.13;;;6.28;;
62401;SDS011;48440;51.224;22.506;2023-09-19T07:28:26;8.43;;;5.93;;
62401;SDS011;48440;51.224;22.506;2023-09-19T07:30:53;8.40;;;6.55;;
62401;SDS011;48440;51.224;22.506;2023-09-19T07:33:19;6.28;;;5.60;;
62401;SDS011;48440;51.224;22.506;2023-09-19T07:35:45;7.18;;;6.43;;
62401;SDS011;48440;51.224;22.506;2023-09-19T07:38:12;7.13;;;5.80;;
62401;SDS011;48440;51.224;22.506;2023-09-19T07:40:38;7.25;;;5.95;;
62401;SDS011;48440;51.224;22.506;2023-09-19T07:43:04;6.78;;;5.60;;
62401;SDS011;48440;51.224;22.506;2023-09-19T07:45:31;7.40;;;5.70;;
62401;SDS011;48440;51.224;22.506;2023-09-19T07:47:57;6.75;;;6.00;;
62401;SDS011;48440;51.224;22.506;2023-09-19T07:50:23;7.63;;;5.88;;
62401;SDS011;48440;51.224;22.506;2023-09-19T07:52:49;9.05;;;5.95;;
62401;SDS011;48440;51.224;22.506;2023-09-19T07:55:18;8.10;;;5.75;;
62401;SDS011;48440;51.224;22.506;2023-09-19T07:57:48;6.80;;;6.10;;
62401;SDS011;48440;51.224;22.506;2023-09-19T08:00:14;9.57;;;5.80;;
62401;SDS011;48440;51.224;22.506;2023-09-19T08:02:40;7.97;;;5.78;;
62401;SDS011;48440;51.224;22.506;2023-09-19T08:05:09;7.57;;;5.93;;
62401;SDS011;48440;51.224;22.506;2023-09-19T08:07:39;8.65;;;6.10;;
62401;SDS011;48440;51.224;22.506;2023-09-19T08:10:06;6.97;;;5.97;;
62401;SDS011;48440;51.224;22.506;2023-09-19T08:12:36;7.82;;;5.72;;
62401;SDS011;48440;51.224;22.506;2023-09-19T08:15:04;8.15;;;6.15;;
62401;SDS011;48440;51.224;22.506;2023-09-19T08:17:34;7.80;;;5.80;;
62401;SDS011;48440;51.224;22.506;2023-09-19T08:20:01;10.18;;;6.15;;
62401;SDS011;48440;51.224;22.506;2023-09-19T08:22:30;8.48;;;6.10;;
62401;SDS011;48440;51.224;22.506;2023-09-19T08:24:56;9.32;;;6.10;;
62401;SDS011;48440;51.224;22.506;2023-09-19T08:27:21;7.85;;;5.85;;
62401;SDS011;48440;51.224;22.506;2023-09-19T08:29:47;7.53;;;6.05;;
62401;SDS011;48440;51.224;22.506;2023-09-19T08:32:12;10.57;;;6.60;;
62401;SDS011;48440;51.224;22.506;2023-09-19T08:34:38;6.82;;;5.80;;
62401;SDS011;48440;51.224;22.506;2023-09-19T08:37:03;9.38;;;6.43;;
62401;SDS011;48440;51.224;22.506;2023-09-19T08:39:29;11.75;;;6.60;;
62401;SDS011;48440;51.224;22.506;2023-09-19T08:41:59;8.18;;;6.32;;
62401;SDS011;48440;51.224;22.506;2023-09-19T08:44:27;8.75;;;6.20;;
62401;SDS011;48440;51.224;22.506;2023-09-19T08:47:08;9.98;;;6.25;;
62401;SDS011;48440;51.224;22.506;2023-09-19T08:52:25;10.40;;;7.22;;
62401;SDS011;48440;51.224;22.506;2023-09-19T08:54:53;7.20;;;6.32;;
62401;SDS011;48440;51.224;22.506;2023-09-19T08:57:28;7.50;;;6.70;;
62401;SDS011;48440;51.224;22.506;2023-09-19T08:59:54;8.88;;;7.10;;
62401;SDS011;48440;51.224;22.506;2023-09-19T09:02:21;8.93;;;7.25;;
62401;SDS011;48440;51.224;22.506;2023-09-19T09:04:48;8.50;;;6.70;;
62401;SDS011;48440;51.224;22.506;2023-09-19T09:07:15;9.88;;;7.47;;
62401;SDS011;48440;51.224;22.506;2023-09-19T09:09:42;8.02;;;6.78;;
62401;SDS011;48440;51.224;22.506;2023-09-19T09:12:11;9.98;;;7.05;;
62401;SDS011;48440;51.224;22.506;2023-09-19T09:14:39;8.98;;;7.00;;
62401;SDS011;48440;51.224;22.506;2023-09-19T09:17:15;11.05;;;7.28;;
62401;SDS011;48440;51.224;22.506;2023-09-19T09:19:46;11.95;;;7.50;;
62401;SDS011;48440;51.224;22.506;2023-09-19T09:22:12;11.35;;;8.23;;
62401;SDS011;48440;51.224;22.506;2023-09-19T09:24:50;9.00;;;7.53;;
62401;SDS011;48440;51.224;22.506;2023-09-19T09:27:22;10.75;;;7.47;;
62401;SDS011;48440;51.224;22.506;2023-09-19T09:29:49;9.48;;;8.38;;
62401;SDS011;48440;51.224;22.506;2023-09-19T09:32:16;9.32;;;7.63;;
62401;SDS011;48440;51.224;22.506;2023-09-19T09:34:52;13.45;;;7.90;;
62401;SDS011;48440;51.224;22.506;2023-09-19T09:37:19;9.20;;;7.60;;
62401;SDS011;48440;51.224;22.506;2023-09-19T09:39:49;12.30;;;8.55;;
62401;SDS011;48440;51.224;22.506;2023-09-19T09:45:14;9.55;;;8.52;;
62401;SDS011;48440;51.224;22.506;2023-09-19T09:47:46;9.25;;;8.23;;
62401;SDS011;48440;51.224;22.506;2023-09-19T09:50:27;10.68;;;8.60;;
62401;SDS011;48440;51.224;22.506;2023-09-19T09:53:19;10.88;;;8.75;;
62401;SDS011;48440;51.224;22.506;2023-09-19T09:56:05;11.75;;;8.98;;
62401;SDS011;48440;51.224;22.506;2023-09-19T09:58:35;10.57;;;8.07;;
62401;SDS011;48440;51.224;22.506;2023-09-19T10:01:02;10.18;;;8.32;;
62401;SDS011;48440;51.224;22.506;2023-09-19T10:03:38;8.85;;;7.93;;
62401;SDS011;48440;51.224;22.506;2023-09-19T10:06:09;12.10;;;8.48;;
62401;SDS011;48440;51.224;22.506;2023-09-19T10:11:29;10.95;;;8.02;;
62401;SDS011;48440;51.224;22.506;2023-09-19T10:13:55;8.93;;;7.88;;
62401;SDS011;48440;51.224;22.506;2023-09-19T10:16:22;10.00;;;8.35;;
62401;SDS011;48440;51.224;22.506;2023-09-19T10:18:50;15.77;;;8.65;;
62401;SDS011;48440;51.224;22.506;2023-09-19T10:21:19;9.85;;;8.35;;
62401;SDS011;48440;51.224;22.506;2023-09-19T10:23:48;12.88;;;8.43;;
62401;SDS011;48440;51.224;22.506;2023-09-19T10:26:17;10.98;;;8.73;;
62401;SDS011;48440;51.224;22.506;2023-09-19T10:28:46;12.05;;;8.57;;
62401;SDS011;48440;51.224;22.506;2023-09-19T10:31:17;11.23;;;8.07;;
62401;SDS011;48440;51.224;22.506;2023-09-19T10:33:46;9.27;;;7.38;;
62401;SDS011;48440;51.224;22.506;2023-09-19T10:36:16;9.75;;;7.63;;
62401;SDS011;48440;51.224;22.506;2023-09-19T10:38:44;10.32;;;7.82;;
62401;SDS011;48440;51.224;22.506;2023-09-19T10:41:14;12.07;;;7.55;;
62401;SDS011;48440;51.224;22.506;2023-09-19T10:43:41;8.60;;;7.53;;
62401;SDS011;48440;51.224;22.506;2023-09-19T10:46:09;10.90;;;8.02;;
62401;SDS011;48440;51.224;22.506;2023-09-19T10:48:38;10.35;;;7.60;;
62401;SDS011;48440;51.224;22.506;2023-09-19T10:51:21;8.70;;;7.57;;
62401;SDS011;48440;51.224;22.506;2023-09-19T10:54:05;7.63;;;6.55;;
62401;SDS011;48440;51.224;22.506;2023-09-19T10:56:39;7.93;;;7.13;;
62401;SDS011;48440;51.224;22.506;2023-09-19T10:59:11;9.93;;;6.93;;
62401;SDS011;48440;51.224;22.506;2023-09-19T11:01:42;7.45;;;6.65;;
62401;SDS011;48440;51.224;22.506;2023-09-19T11:07:13;7.78;;;5.82;;
62401;SDS011;48440;51.224;22.506;2023-09-19T11:15:06;6.90;;;6.20;;
62401;SDS011;48440;51.224;22.506;2023-09-19T11:17:41;6.88;;;6.18;;
62401;SDS011;48440;51.224;22.506;2023-09-19T11:30:42;9.18;;;6.57;;
62401;SDS011;48440;51.224;22.506;2023-09-19T11:36:06;7.72;;;6.93;;
62401;SDS011;48440;51.224;22.506;2023-09-19T11:46:28;8.13;;;7.28;;
62401;SDS011;48440;51.224;22.506;2023-09-19T11:49:04;10.50;;;7.22;;
62401;SDS011;48440;51.224;22.506;2023-09-19T11:51:42;9.05;;;8.07;;
62401;SDS011;48440;51.224;22.506;2023-09-19T11:54:12;10.30;;;9.20;;
62401;SDS011;48440;51.224;22.506;2023-09-19T11:56:43;11.45;;;7.90;;
62401;SDS011;48440;51.224;22.506;2023-09-19T11:59:10;11.65;;;8.43;;
62401;SDS011;48440;51.224;22.506;2023-09-19T12:01:36;9.43;;;8.10;;
62401;SDS011;48440;51.224;22.506;2023-09-19T12:04:11;9.43;;;7.90;;
62401;SDS011;48440;51.224;22.506;2023-09-19T12:06:37;11.50;;;8.57;;
62401;SDS011;48440;51.224;22.506;2023-09-19T12:09:13;10.48;;;7.90;;
62401;SDS011;48440;51.224;22.506;2023-09-19T12:11:42;8.90;;;8.00;;
62401;SDS011;48440;51.224;22.506;2023-09-19T12:14:11;10.35;;;8.10;;
62401;SDS011;48440;51.224;22.506;2023-09-19T12:16:50;9.50;;;8.60;;
62401;SDS011;48440;51.224;22.506;2023-09-19T12:19:20;10.10;;;8.27;;
62401;SDS011;48440;51.224;22.506;2023-09-19T12:22:00;10.48;;;8.15;;
62401;SDS011;48440;51.224;22.506;2023-09-19T12:24:30;9.20;;;7.72;;
62401;SDS011;48440;51.224;22.506;2023-09-19T12:27:00;8.23;;;7.38;;
62401;SDS011;48440;51.224;22.506;2023-09-19T12:29:29;7.88;;;7.05;;
62401;SDS011;48440;51.224;22.506;2023-09-19T12:32:19;8.95;;;7.35;;
62401;SDS011;48440;51.224;22.506;2023-09-19T12:34:59;10.05;;;8.00;;
62401;SDS011;48440;51.224;22.506;2023-09-19T12:37:24;8.18;;;7.22;;
62401;SDS011;48440;51.224;22.506;2023-09-19T12:40:03;9.25;;;7.60;;
62401;SDS011;48440;51.224;22.506;2023-09-19T12:42:40;8.48;;;7.22;;
62401;SDS011;48440;51.224;22.506;2023-09-19T12:45:07;8.00;;;7.07;;
62401;SDS011;48440;51.224;22.506;2023-09-19T12:47:38;9.52;;;7.50;;
62401;SDS011;48440;51.224;22.506;2023-09-19T12:50:11;9.00;;;7.35;;
62401;SDS011;48440;51.224;22.506;2023-09-19T12:52:54;9.05;;;7.43;;
62401;SDS011;48440;51.224;22.506;2023-09-19T12:55:31;8.48;;;7.65;;
62401;SDS011;48440;51.224;22.506;2023-09-19T12:58:08;9.98;;;7.88;;
62401;SDS011;48440;51.224;22.506;2023-09-19T13:00:40;8.05;;;7.25;;
62401;SDS011;48440;51.224;22.506;2023-09-19T13:05:56;8.43;;;7.38;;
62401;SDS011;48440;51.224;22.506;2023-09-19T13:08:32;8.02;;;7.20;;
62401;SDS011;48440;51.224;22.506;2023-09-19T13:11:10;8.40;;;6.70;;
62401;SDS011;48440;51.224;22.506;2023-09-19T13:13:39;8.82;;;6.78;;
62401;SDS011;48440;51.224;22.506;2023-09-19T13:16:07;8.50;;;6.60;;
62401;SDS011;48440;51.224;22.506;2023-09-19T13:18:42;7.30;;;6.43;;
62401;SDS011;48440;51.224;22.506;2023-09-19T13:21:13;8.20;;;6.80;;
62401;SDS011;48440;51.224;22.506;2023-09-19T13:23:52;7.55;;;6.45;;
62401;SDS011;48440;51.224;22.506;2023-09-19T13:26:21;9.25;;;7.00;;
62401;SDS011;48440;51.224;22.506;2023-09-19T13:28:47;7.28;;;6.43;;
62401;SDS011;48440;51.224;22.506;2023-09-19T13:31:14;9.18;;;7.05;;
62401;SDS011;48440;51.224;22.506;2023-09-19T13:33:44;7.20;;;6.50;;
62401;SDS011;48440;51.224;22.506;2023-09-19T13:36:10;7.03;;;6.35;;
62401;SDS011;48440;51.224;22.506;2023-09-19T13:38:38;7.03;;;6.32;;
62401;SDS011;48440;51.224;22.506;2023-09-19T13:41:10;7.68;;;6.28;;
62401;SDS011;48440;51.224;22.506;2023-09-19T13:43:36;7.43;;;6.70;;
62401;SDS011;48440;51.224;22.506;2023-09-19T13:46:04;7.25;;;6.55;;
62401;SDS011;48440;51.224;22.506;2023-09-19T13:48:37;6.78;;;6.07;;
62401;SDS011;48440;51.224;22.506;2023-09-19T13:51:03;7.55;;;6.55;;
62401;SDS011;48440;51.224;22.506;2023-09-19T13:53:29;7.32;;;6.70;;
62401;SDS011;48440;51.224;22.506;2023-09-19T13:55:55;7.03;;;6.40;;
62401;SDS011;48440;51.224;22.506;2023-09-19T13:58:21;7.32;;;6.63;;
62401;SDS011;48440;51.224;22.506;2023-09-19T14:00:48;7.10;;;6.40;;
62401;SDS011;48440;51.224;22.506;2023-09-19T14:03:14;7.18;;;6.32;;
62401;SDS011;48440;51.224;22.506;2023-09-19T14:05:39;7.03;;;6.35;;
62401;SDS011;48440;51.224;22.506;2023-09-19T14:08:07;7.53;;;6.32;;
62401;SDS011;48440;51.224;22.506;2023-09-19T14:10:33;7.68;;;6.85;;
62401;SDS011;48440;51.224;22.506;2023-09-19T14:13:00;7.63;;;6.82;;
62401;SDS011;48440;51.224;22.506;2023-09-19T14:15:26;6.97;;;6.35;;
62401;SDS011;48440;51.224;22.506;2023-09-19T14:17:55;7.97;;;7.18;;
62401;SDS011;48440;51.224;22.506;2023-09-19T14:20:24;8.07;;;7.30;;
62401;SDS011;48440;51.224;22.506;2023-09-19T14:22:52;7.38;;;6.68;;
62401;SDS011;48440;51.224;22.506;2023-09-19T14:25:18;7.57;;;6.80;;
62401;SDS011;48440;51.224;22.506;2023-09-19T14:27:44;6.88;;;6.22;;
62401;SDS011;48440;51.224;22.506;2023-09-19T14:30:09;8.82;;;7.82;;
62401;SDS011;48440;51.224;22.506;2023-09-19T14:32:35;8.10;;;6.88;;
62401;SDS011;48440;51.224;22.506;2023-09-19T14:35:01;6.80;;;6.20;;
62401;SDS011;48440;51.224;22.506;2023-09-19T14:37:28;7.22;;;6.53;;
62401;SDS011;48440;51.224;22.506;2023-09-19T14:39:53;6.97;;;6.28;;
62401;SDS011;48440;51.224;22.506;2023-09-19T14:42:19;6.68;;;5.97;;
62401;SDS011;48440;51.224;22.506;2023-09-19T14:44:45;7.68;;;6.00;;
62401;SDS011;48440;51.224;22.506;2023-09-19T14:47:12;7.00;;;6.30;;
62401;SDS011;48440;51.224;22.506;2023-09-19T14:49:38;6.55;;;5.95;;
62401;SDS011;48440;51.224;22.506;2023-09-19T14:52:09;7.15;;;6.03;;
62401;SDS011;48440;51.224;22.506;2023-09-19T14:54:35;6.45;;;5.78;;
62401;SDS011;48440;51.224;22.506;2023-09-19T14:57:03;7.32;;;6.13;;
62401;SDS011;48440;51.224;22.506;2023-09-19T14:59:32;6.45;;;5.85;;
62401;SDS011;48440;51.224;22.506;2023-09-19T15:01:59;6.78;;;6.18;;
62401;SDS011;48440;51.224;22.506;2023-09-19T15:04:25;7.72;;;6.30;;
62401;SDS011;48440;51.224;22.506;2023-09-19T15:06:52;7.10;;;6.40;;
62401;SDS011;48440;51.224;22.506;2023-09-19T15:09:20;8.20;;;6.53;;
62401;SDS011;48440;51.224;22.506;2023-09-19T15:11:51;7.22;;;6.53;;
62401;SDS011;48440;51.224;22.506;2023-09-19T15:14:17;6.95;;;6.35;;
62401;SDS011;48440;51.224;22.506;2023-09-19T15:16:43;8.18;;;7.05;;
62401;SDS011;48440;51.224;22.506;2023-09-19T15:19:09;8.00;;;7.13;;
62401;SDS011;48440;51.224;22.506;2023-09-19T15:21:35;8.30;;;7.50;;
62401;SDS011;48440;51.224;22.506;2023-09-19T15:24:02;8.18;;;7.38;;
62401;SDS011;48440;51.224;22.506;2023-09-19T15:26:28;9.35;;;8.45;;
62401;SDS011;48440;51.224;22.506;2023-09-19T15:28:55;8.82;;;7.93;;
62401;SDS011;48440;51.224;22.506;2023-09-19T15:31:20;9.10;;;8.20;;
62401;SDS011;48440;51.224;22.506;2023-09-19T15:33:46;9.80;;;8.80;;
62401;SDS011;48440;51.224;22.506;2023-09-19T15:36:12;11.60;;;9.80;;
62401;SDS011;48440;51.224;22.506;2023-09-19T15:41:35;10.20;;;8.02;;
62401;SDS011;48440;51.224;22.506;2023-09-19T15:44:05;8.57;;;7.65;;
62401;SDS011;48440;51.224;22.506;2023-09-19T15:46:36;9.10;;;7.43;;
62401;SDS011;48440;51.224;22.506;2023-09-19T15:49:02;7.32;;;5.55;;
62401;SDS011;48440;51.224;22.506;2023-09-19T15:51:28;5.82;;;5.05;;
62401;SDS011;48440;51.224;22.506;2023-09-19T15:53:54;6.57;;;4.38;;
62401;SDS011;48440;51.224;22.506;2023-09-19T15:56:21;5.38;;;4.13;;
62401;SDS011;48440;51.224;22.506;2023-09-19T15:58:50;5.13;;;3.45;;